TimeEST,TemperatureF,Dew PointF,Humidity,Sea Level PressureIn,VisibilityMPH,Wind Direction,Wind SpeedMPH,Gust SpeedMPH,PrecipitationIn,Events,Conditions,WindDirDegrees,DateUTC
12:32 AM,33.8,30.2,87,29.59,10.0,WSW,10.4,-,0.00,,Overcast,250,2013-02-28 05:32:00
12:42 AM,33.8,30.2,87,29.59,10.0,WSW,11.5,17.3,0.00,,Overcast,250,2013-02-28 05:42:00
1:05 AM,33.8,30.2,87,29.59,10.0,SW,8.1,-,N/A,,Overcast,230,2013-02-28 06:05:00
1:54 AM,33.1,28.0,82,29.63,10.0,West,9.2,-,N/A,,Overcast,260,2013-02-28 06:54:00
2:54 AM,32.0,28.9,88,29.62,10.0,SW,5.8,-,0.00,,Overcast,220,2013-02-28 07:54:00
3:01 AM,32.0,28.4,87,29.58,10.0,SSW,4.6,-,N/A,,Overcast,210,2013-02-28 08:01:00
3:27 AM,32.0,28.4,87,29.58,6.0,SW,3.5,-,0.00,Snow,Light Snow,220,2013-02-28 08:27:00
4:38 AM,30.2,30.2,100,29.57,1.8,SSW,4.6,-,0.01,Snow,Light Snow,210,2013-02-28 09:38:00
4:44 AM,30.2,30.2,100,29.57,2.5,SSW,5.8,-,0.01,Snow,Light Snow,200,2013-02-28 09:44:00
4:54 AM,30.9,30.0,96,29.61,2.5,SSW,5.8,-,0.01,Snow,Light Snow,200,2013-02-28 09:54:00
5:04 AM,30.2,28.4,93,29.58,4.0,SSW,5.8,-,0.00,Snow,Light Snow,200,2013-02-28 10:04:00
5:18 AM,30.2,28.4,93,29.58,9.0,SSW,5.8,-,0.00,,Overcast,200,2013-02-28 10:18:00
5:26 AM,30.2,28.4,93,29.58,10.0,South,5.8,-,0.00,,Overcast,190,2013-02-28 10:26:00
5:54 AM,30.9,28.0,89,29.61,10.0,SSW,5.8,-,0.00,,Overcast,210,2013-02-28 10:54:00
6:42 AM,30.2,28.4,93,29.57,10.0,SSW,6.9,-,N/A,,Overcast,210,2013-02-28 11:42:00
6:54 AM,30.9,28.0,89,29.61,10.0,SW,6.9,-,N/A,,Overcast,220,2013-02-28 11:54:00
7:17 AM,30.2,28.4,93,29.57,6.0,SSW,5.8,-,0.00,Snow,Light Snow,210,2013-02-28 12:17:00
7:54 AM,30.9,28.0,89,29.61,10.0,SSW,8.1,-,0.00,,Overcast,210,2013-02-28 12:54:00
8:26 AM,30.2,28.4,93,29.58,2.5,SW,8.1,-,0.00,Snow,Light Snow,220,2013-02-28 13:26:00
8:43 AM,30.2,30.2,100,29.58,1.8,South,4.6,-,0.00,Snow,Light Snow,190,2013-02-28 13:43:00
8:54 AM,30.9,28.9,92,29.62,1.2,SSW,5.8,-,0.00,Snow,Light Snow,200,2013-02-28 13:54:00
9:50 AM,30.2,30.2,100,29.58,2.0,SW,8.1,-,0.01,Snow,Light Snow,220,2013-02-28 14:50:00
9:54 AM,30.9,30.0,96,29.62,1.8,SW,6.9,-,0.01,Snow,Light Snow,220,2013-02-28 14:54:00
10:24 AM,32.0,30.2,93,29.58,2.0,SW,6.9,-,0.00,Snow,Light Snow,220,2013-02-28 15:24:00
10:34 AM,32.0,28.4,87,29.58,6.0,WSW,8.1,-,0.00,Snow,Light Snow,240,2013-02-28 15:34:00
10:41 AM,32.0,28.4,87,29.58,7.0,WSW,6.9,-,0.00,Snow,Light Snow,240,2013-02-28 15:41:00
10:54 AM,32.0,28.0,85,29.63,5.0,SW,8.1,-,0.00,Snow,Light Snow,220,2013-02-28 15:54:00
11:26 AM,32.0,28.4,87,29.59,2.5,SW,8.1,-,0.00,Snow,Light Snow,230,2013-02-28 16:26:00
11:33 AM,33.8,28.4,81,29.59,5.0,SW,9.2,-,0.00,Snow,Light Snow,220,2013-02-28 16:33:00
11:54 AM,33.1,28.0,82,29.63,5.0,SSW,6.9,-,0.00,Snow,Light Snow,210,2013-02-28 16:54:00
12:03 PM,33.8,28.4,81,29.59,4.0,Variable,5.8,-,0.00,Snow,Light Snow,0,2013-02-28 17:03:00
12:25 PM,33.8,26.6,75,29.58,6.0,WSW,9.2,-,0.00,Snow,Light Snow,250,2013-02-28 17:25:00
12:37 PM,33.8,26.6,75,29.58,1.8,WSW,11.5,-,0.00,Snow,Light Snow,250,2013-02-28 17:37:00
12:54 PM,32.0,28.0,85,29.62,2.0,SW,10.4,-,0.00,Snow,Light Snow,230,2013-02-28 17:54:00
1:14 PM,33.8,28.4,81,29.58,8.0,SW,10.4,-,0.00,Snow,Light Snow,230,2013-02-28 18:14:00
1:35 PM,33.8,28.4,81,29.57,5.0,WSW,9.2,-,0.00,Snow,Light Snow,240,2013-02-28 18:35:00
1:54 PM,34.0,28.0,79,29.62,6.0,WSW,10.4,18.4,0.00,Snow,Light Snow,250,2013-02-28 18:54:00
2:54 PM,34.0,27.0,75,29.62,7.0,WSW,9.2,-,0.00,Snow,Light Snow,240,2013-02-28 19:54:00
3:34 PM,33.8,26.6,75,29.59,10.0,WSW,8.1,-,0.00,Rain,Light Rain,250,2013-02-28 20:34:00
3:54 PM,34.0,27.0,75,29.63,10.0,WSW,8.1,-,0.00,Snow,Light Snow,250,2013-02-28 20:54:00
4:36 PM,33.8,28.4,81,29.60,2.0,WSW,8.1,-,0.00,Snow,Light Snow,240,2013-02-28 21:36:00
4:44 PM,33.8,28.4,81,29.60,3.0,WSW,8.1,-,0.00,Snow,Light Snow,240,2013-02-28 21:44:00
4:54 PM,33.1,28.0,82,29.64,2.5,SW,6.9,-,0.00,Snow,Light Snow,230,2013-02-28 21:54:00
5:17 PM,32.0,28.4,87,29.60,5.0,SW,5.8,-,0.00,Snow,Light Snow,230,2013-02-28 22:17:00
5:54 PM,32.0,28.9,88,29.66,6.0,WSW,5.8,-,0.00,Snow,Light Snow,250,2013-02-28 22:54:00
6:54 PM,32.0,28.9,88,29.68,10.0,WSW,3.5,-,0.01,,Overcast,250,2013-02-28 23:54:00
7:54 PM,33.1,28.9,85,29.70,10.0,West,5.8,-,0.00,,Overcast,280,2013-03-01 00:54:00
8:54 PM,33.1,28.9,85,29.72,7.0,WNW,9.2,-,0.00,Snow,Light Snow,300,2013-03-01 01:54:00
9:54 PM,33.1,28.0,82,29.73,10.0,NW,9.2,-,0.00,,Overcast,320,2013-03-01 02:54:00
10:54 PM,32.0,28.0,85,29.74,10.0,NW,6.9,-,0.00,,Overcast,310,2013-03-01 03:54:00
11:54 PM,32.0,27.0,82,29.74,10.0,NW,9.2,-,N/A,,Overcast,310,2013-03-01 04:54:00